Topcliffe, United Kingdom
Current Conditions -  °F | °C
As of 4:50 AM on Saturday 20 Dec 2014 (Local Time) from EGXZ Reporting Station
Broken Clouds Broken Clouds  
Wind Chill: 37°   Ceiling: 21000
Heat Index: 45°   Visibility: 6mi
Dew Point: 36°   Wind: 20mph
Humidity: 71%   Direction: 270°W
Pressure: 29.97"   Gusts: NA
Location:  54.2°N, 1.38°W
Report Text: EGXZ 200450Z AUTO 27017KT 9999 FEW028/// BKN210/// 07/02 Q1015
Loading
Personal Weather Stations






























Interactive Weather Map New forecast layout! Learn more

10-Day Weather Forecast

Advertisements
Track Severe Weather on mobile